Albuquerque, NM

9:37 PM MST on February 07, 2016 (GMT -0700)
Sante Fe Village - Rockcress | | Change Station
CLOSE
Current Station
Personal Weather Station
Location: Albuquerque, NM
Elevation: 5203 ft
Nearby Weather Stations

Elev 5203 ft 35.14 °N, 106.72 °W | Updated 16 seconds ago

Clear
Clear
41.5 °F
Feels Like 36 °F
N
8.7
Wind Variable Wind from ENE
Gusts 12.3 mph

Today
High -- | Low -- °F
--% Chance of Precip.
Yesterday
High -- | Low -- °F
Precip. -- in
Pressure 30.36 in
Visibility 10.0 miles
Clouds Clear
Windchill 36 °F
Dew Point 19 °F
Humidity 40%
Rainfall 0.00 in
Snow Depth Not available.
7:01 AM 5:41 PM
Waning Crescent, 0% visible
METAR KABQ 080352Z 36004KT 10SM CLR 06/M07 A3038 RMK AO2 SLP279 T00611072
Pressure 30.36 in
Visibility 10.0 miles
Clouds Clear
Windchill 36 °F
Dew Point 19 °F
Humidity 40%
Rainfall 0.00 in
Snow Depth Not available.
7:01 AM 5:41 PM
Waning Crescent, 0% visible
METAR KABQ 080352Z 36004KT 10SM CLR 06/M07 A3038 RMK AO2 SLP279 T00611072

10-Day Weather Forecast

Almanac

Astronomy

Feb. 07, 2016 Rise Set
Actual Time
Civil Twilight
Nautical Twilight
Astronomical Twilight
Moon
Length of Visible Light
Length of Day
Tomorrow will be .
, % of the Moon is Illuminated

Today's Extremes

State Highs State Lows

Community

WunderPhotos

Upload Photos

1,891,382 photos uploaded!

WunderBlog® & News

Nearby

Air Quality

  Air Quality AQ Index Pollutant
Not available.

Snow Depth

Station Depth Elevation

Earthquake Activity

City Distance Mag. Time & Date
Minimum magnitude displayed is 2.5.

Coastal Water Temperatures

Place Temperature

Stations

Nearby Weather Stations

Station Location Temp. Windchill Dew Point Humidity Wind Precip. Elev Updated Type
                   

Watches & Warnings

There are currently no watches in effect.